Waco's Hourly Summary for Thursday, July 5, 2018
Hour Temp
(f)
RH
(%)
Solar Rad.
(MJ/m2)
Rainfall
(in)
Wind
(mph)
7/5/2018 12:00 AM 73 88 0 0 4.67
7/5/2018 1:00 AM 72 89 0 0 4.08
7/5/2018 2:00 AM 72 90 0 0 3.64
7/5/2018 3:00 AM 72 91 0 0 2.85
7/5/2018 4:00 AM 72 91 0 0 2.67
7/5/2018 5:00 AM 71 91 0 0 3.01
7/5/2018 6:00 AM 71 92 0 0 0.22
7/5/2018 7:00 AM 71 92 0.02 0 0.18
7/5/2018 8:00 AM 73 83 0.35 0 0.92
7/5/2018 9:00 AM 77 73 0.9 0 2.87
7/5/2018 10:00 AM 79 60 1.44 0 3.42
7/5/2018 11:00 AM 83 53 2.11 0 3.36
7/5/2018 12:00 PM 86 45 2.55 0 3.34
7/5/2018 1:00 PM 88 36 2.81 0 3.98
7/5/2018 2:00 PM 90 39 2.9 0 4.44
7/5/2018 3:00 PM 92 37 2.66 0 3.44
7/5/2018 4:00 PM 93 34 2.33 0 3.99
7/5/2018 5:00 PM 94 33 1.94 0 3.6
7/5/2018 6:00 PM 95 32 1.49 0 3.5
7/5/2018 7:00 PM 95 32 0.86 0 3.52
7/5/2018 8:00 PM 93 34 0.38 0 2.71
7/5/2018 9:00 PM 90 37 0.05 0 1
7/5/2018 10:00 PM 88 42 0 0 1.05
7/5/2018 11:00 PM 87 45 0 0 2.15
Data Summary 82 59 22.79 0.00 2.86